.
WxDataArchive / Data Records for 2006-12-10
2006-12-09 December 2006 2006-12-11

Data Records for Sunday, 10 December 2006

Time	Temp	Chill	HIndex	Humid	Dewpt	 Wind 	HiWind	WindDir	Rain 	Barom 
-----	----	-----	------	-----	-----	------	------	-------	-----	----- 
00:00	34.1	34.1	34.1	48	16.5	3	7	248	0.00	30.207 
00:05	34.3	34.3	34.3	48	16.7	2	7	248	0.00	30.207 
00:10	34.3	34.3	34.3	48	16.7	2	5	248	0.00	30.207 
00:15	34.3	34.3	34.3	48	16.7	2	7	248	0.00	30.202 
00:20	34.3	34.3	34.3	48	16.7	2	9	248	0.00	30.202 
00:25	34.1	34.1	34.1	48	16.5	2	6	248	0.00	30.202 
00:30	34.1	34.1	34.1	48	16.5	2	5	248	0.00	30.201 
00:35	34.1	34.1	34.1	48	16.5	2	5	248	0.00	30.201 
00:40	34.3	34.3	34.3	48	16.7	2	6	248	0.00	30.201 
00:45	34.4	34.4	34.4	47	16.3	3	9	248	0.00	30.205 
00:50	34.4	34.4	34.4	47	16.3	3	10	248	0.00	30.205 
00:55	34.6	34.6	34.6	47	16.5	2	7	248	0.00	30.205 
01:00	34.6	34.6	34.6	46	16.0	3	7	248	0.00	30.207 
01:05	34.7	34.7	34.7	47	16.6	2	8	270	0.00	30.207 
01:10	34.7	34.7	34.7	47	16.6	3	6	248	0.00	30.207 
01:15	34.7	34.7	34.7	47	16.6	3	9	248	0.00	30.208 
01:20	34.6	34.6	34.6	47	16.5	3	5	270	0.00	30.208 
01:25	34.6	34.6	34.6	47	16.5	2	9	248	0.00	30.208 
01:30	34.7	34.7	34.7	47	16.6	3	7	248	0.00	30.211 
01:35	34.7	34.7	34.7	47	16.6	3	9	248	0.00	30.211 
01:40	34.7	34.7	34.7	47	16.6	3	6	248	0.00	30.211 
01:45	34.9	34.9	34.9	46	16.2	3	10	248	0.00	30.211 
01:50	34.9	34.9	34.9	47	16.7	2	7	248	0.00	30.211 
01:55	34.9	34.9	34.9	47	16.7	3	6	248	0.00	30.211 
02:00	34.9	34.9	34.9	47	16.7	3	7	248	0.00	30.212 
02:05	34.9	34.9	34.9	47	16.7	3	10	248	0.00	30.212 
02:10	34.9	34.9	34.9	47	16.7	3	7	248	0.00	30.212 
02:15	34.9	34.9	34.9	47	16.7	2	7	270	0.00	30.211 
02:20	34.9	34.9	34.9	48	17.2	2	9	248	0.00	30.211 
02:25	34.7	34.7	34.7	48	17.0	2	9	248	0.00	30.211 
02:30	34.7	34.7	34.7	48	17.0	3	9	248	0.00	30.214 
02:35	34.7	34.7	34.7	48	17.0	3	10	248	0.00	30.214 
02:40	34.6	34.6	34.6	48	16.9	3	6	248	0.00	30.214 
02:45	34.6	34.6	34.6	48	16.9	3	10	248	0.00	30.223 
02:50	34.6	34.6	34.6	49	17.4	2	7	248	0.00	30.223 
02:55	34.6	34.6	34.6	49	17.4	2	6	248	0.00	30.223 
03:00	34.6	34.6	34.6	49	17.4	2	5	248	0.00	30.226 
03:05	34.4	34.4	34.4	49	17.2	3	7	248	0.00	30.226 
03:10	34.4	34.4	34.4	50	17.7	2	9	248	0.00	30.226 
03:15	34.3	34.3	34.3	50	17.6	2	4	248	0.00	30.227 
03:20	34.3	34.3	34.3	50	17.6	2	7	248	0.00	30.227 
03:25	34.3	34.3	34.3	50	17.6	2	7	248	0.00	30.227 
03:30	34.3	34.3	34.3	50	17.6	2	7	248	0.00	30.234 
03:35	34.3	34.3	34.3	50	17.6	2	8	248	0.00	30.234 
03:40	34.4	34.4	34.4	50	17.7	3	10	248	0.00	30.234 
03:45	34.4	34.4	34.4	50	17.7	2	5	248	0.00	30.238 
03:50	34.3	34.3	34.3	50	17.6	3	10	248	0.00	30.238 
03:55	34.3	34.3	34.3	50	17.6	3	6	248	0.00	30.238 
04:00	34.4	34.4	34.4	50	17.7	3	9	248	0.00	30.240 
04:05	34.4	34.4	34.4	50	17.7	3	7	248	0.00	30.240 
04:10	34.4	34.4	34.4	50	17.7	3	11	270	0.00	30.240 
04:15	34.4	34.4	34.4	50	17.7	3	9	248	0.00	30.242 
04:20	34.3	34.3	34.3	51	18.1	2	6	248	0.00	30.242 
04:25	34.1	34.1	34.1	51	17.9	2	6	248	0.00	30.242 
04:30	34.0	34.0	34.0	51	17.8	2	7	248	0.00	30.244 
04:35	33.8	33.8	33.8	52	18.1	2	6	248	0.00	30.244 
04:40	33.7	33.7	33.7	52	18.0	2	12	248	0.00	30.244 
04:45	33.7	33.7	33.7	52	18.0	2	9	248	0.00	30.246 
04:50	33.5	33.5	33.5	52	17.8	2	6	248	0.00	30.246 
04:55	33.4	33.4	33.4	53	18.1	2	7	248	0.00	30.246 
05:00	33.5	33.5	33.5	52	17.8	2	6	248	0.00	30.249 
05:05	33.5	33.5	33.5	52	17.8	3	9	248	0.00	30.249 
05:10	33.5	33.5	33.5	52	17.8	2	6	248	0.00	30.249 
05:15	33.5	33.5	33.5	52	17.8	3	6	248	0.00	30.253 
05:20	33.5	33.5	33.5	52	17.8	2	7	248	0.00	30.253 
05:25	33.5	33.5	33.5	52	17.8	2	7	248	0.00	30.253 
05:30	33.5	33.5	33.5	52	17.8	2	5	248	0.00	30.258 
05:35	33.4	33.4	33.4	52	17.7	2	6	248	0.00	30.258 
05:40	33.2	33.2	33.2	53	17.9	1	5	248	0.00	30.258 
05:45	33.1	33.1	33.1	53	17.9	2	5	248	0.00	30.262 
05:50	32.9	32.9	32.9	53	17.7	2	5	270	0.00	30.262 
05:55	32.9	32.9	32.9	53	17.7	2	5	248	0.00	30.262 
06:00	32.9	32.9	32.9	53	17.7	2	5	248	0.00	30.262 
06:05	32.8	32.8	32.8	54	18.0	1	4	248	0.00	30.262 
06:10	32.7	32.7	32.7	54	17.9	1	4	248	0.00	30.262 
06:15	32.8	32.8	32.8	54	18.0	2	6	248	0.00	30.263 
06:20	32.8	32.8	32.8	54	18.0	2	6	248	0.00	30.263 
06:25	32.7	32.7	32.7	54	17.9	2	6	248	0.00	30.263 
06:30	32.7	32.7	32.7	54	17.9	3	8	248	0.00	30.265 
06:35	32.7	32.7	32.7	54	17.9	2	10	248	0.00	30.265 
06:40	32.5	32.5	32.5	54	17.7	2	6	248	0.00	30.265 
06:45	32.5	32.5	32.5	54	17.7	2	11	248	0.00	30.268 
06:50	32.5	32.5	32.5	54	17.7	2	6	248	0.00	30.268 
06:55	32.5	32.5	32.5	54	17.7	2	6	248	0.00	30.268 
07:00	32.5	32.5	32.5	54	17.7	2	7	248	0.00	30.274 
07:05	32.4	32.4	32.4	54	17.6	2	5	248	0.00	30.274 
07:10	32.4	32.4	32.4	54	17.6	3	7	248	0.00	30.274 
07:15	32.4	32.4	32.4	54	17.6	2	5	248	0.00	30.280 
07:20	32.4	32.4	32.4	55	18.1	2	5	248	0.00	30.280 
07:25	32.4	32.4	32.4	54	17.6	3	10	248	0.00	30.280 
07:30	32.5	32.5	32.5	54	17.7	3	7	248	0.00	30.277 
07:35	32.5	32.5	32.5	54	17.7	2	5	248	0.00	30.277 
07:40	32.5	32.5	32.5	54	17.7	2	6	248	0.00	30.277 
07:45	32.4	32.4	32.4	55	18.1	2	5	248	0.00	30.277 
07:50	32.4	32.4	32.4	55	18.1	2	5	248	0.00	30.277 
07:55	32.4	32.4	32.4	55	18.1	2	5	248	0.00	30.277 
08:00	32.2	32.2	32.2	55	17.9	2	5	248	0.00	30.279 
08:05	32.1	32.1	32.1	56	18.2	2	7	248	0.00	30.279 
08:10	32.2	32.2	32.2	56	18.3	2	9	248	0.00	30.279 
08:15	32.1	32.1	32.1	56	18.2	2	4	248	0.00	30.280 
08:20	32.1	32.1	32.1	56	18.2	2	5	248	0.00	30.280 
08:25	32.1	32.1	32.1	56	18.2	1	5	248	0.00	30.280 
08:30	32.2	32.2	32.2	55	17.9	2	5	248	0.00	30.280 
08:35	32.4	32.4	32.4	55	18.1	2	5	248	0.00	30.280 
08:40	32.5	32.5	32.5	55	18.2	2	6	248	0.00	30.280 
08:45	32.7	32.7	32.7	54	17.9	2	5	248	0.00	30.280 
08:50	32.9	32.9	32.9	54	18.1	3	6	248	0.00	30.280 
08:55	33.1	33.1	33.1	53	17.9	2	5	248	0.00	30.280 
09:00	33.4	33.4	33.4	53	18.1	2	6	248	0.00	30.279 
09:05	33.8	33.8	33.8	52	18.1	3	6	248	0.00	30.279 
09:10	34.1	34.1	34.1	51	17.9	3	7	248	0.00	30.279 
09:15	34.6	34.6	34.6	50	17.9	3	9	248	0.00	30.279 
09:20	34.9	34.9	34.9	50	18.2	3	9	248	0.00	30.279 
09:25	35.2	35.2	35.2	49	18.0	3	9	248	0.00	30.279 
09:30	35.5	35.5	35.5	48	17.8	2	6	248	0.00	30.278 
09:35	35.8	35.8	35.8	48	18.1	3	9	248	0.00	30.278 
09:40	36.0	36.0	36.0	47	17.7	3	6	248	0.00	30.278 
09:45	36.3	36.3	36.3	46	17.5	3	7	248	0.00	30.283 
09:50	36.6	36.6	36.6	46	17.8	3	7	248	0.00	30.283 
09:55	36.9	33.7	36.9	45	17.6	4	11	248	0.00	30.283 
10:00	37.2	37.2	37.2	44	17.3	3	9	248	0.00	30.285 
10:05	37.5	37.5	37.5	43	17.1	3	8	248	0.00	30.285 
10:10	37.9	34.9	37.9	42	16.9	4	11	248	0.00	30.285 
10:15	38.3	38.3	38.3	42	17.2	3	8	248	0.00	30.288 
10:20	38.8	35.1	38.8	39	16.0	5	11	270	0.00	30.288 
10:25	39.1	36.3	39.1	39	16.3	4	9	270	0.00	30.288 
10:30	39.3	39.3	39.3	39	16.4	3	7	248	0.00	30.285 
10:35	39.6	36.9	39.6	36	14.9	4	11	248	0.00	30.285 
10:40	40.1	40.1	40.1	36	15.3	3	13	248	0.00	30.285 
10:45	40.3	37.7	40.3	33	13.5	4	10	248	0.00	30.285 
10:50	40.8	37.4	40.8	32	13.3	5	12	248	0.00	30.285 
10:55	41.1	38.6	41.1	31	12.8	4	10	248	0.00	30.285 
11:00	41.2	37.9	41.2	31	12.9	5	11	248	0.00	30.283 
11:05	41.5	41.5	41.5	30	12.4	3	7	248	0.00	30.283 
11:10	41.9	41.9	41.9	30	12.8	3	8	248	0.00	30.283 
11:15	42.2	39.1	42.2	28	11.5	5	10	248	0.00	30.278 
11:20	42.6	40.3	42.6	28	11.8	4	12	248	0.00	30.278 
11:25	43.1	40.9	43.1	26	10.6	4	7	270	0.00	30.278 
11:30	43.3	43.3	43.3	26	10.7	3	9	248	0.00	30.273 
11:35	43.3	41.1	43.3	26	10.7	4	12	248	0.00	30.273 
11:40	43.5	41.4	43.5	25	10.0	4	10	248	0.00	30.273 
11:45	43.8	40.9	43.8	21	6.4	5	10	248	0.00	30.263 
11:50	44.3	42.3	44.3	24	9.8	4	9	248	0.00	30.263 
11:55	44.9	42.2	44.9	22	8.4	5	12	270	0.00	30.263 
12:00	45.5	45.5	45.5	25	11.7	3	8	248	0.00	30.254 
12:05	46.1	46.1	46.1	22	9.4	3	9	270	0.00	30.254 
12:10	46.2	46.2	46.2	22	9.5	3	7	248	0.00	30.254 
12:15	46.4	46.4	46.4	21	8.6	3	9	248	0.00	30.250 
12:20	46.2	43.1	46.2	20	7.4	6	10	248	0.00	30.250 
12:25	46.2	44.5	46.2	21	8.5	4	9	248	0.00	30.250 
12:30	46.4	44.0	46.4	20	7.5	5	12	248	0.00	30.239 
12:35	46.5	43.5	46.5	20	7.6	6	14	248	0.00	30.239 
12:40	46.7	45.1	46.7	21	8.9	4	14	248	0.00	30.239 
12:45	47.1	47.1	47.1	20	8.1	3	9	270	0.00	30.234 
12:50	47.7	45.5	47.7	19	7.5	5	11	248	0.00	30.234 
12:55	47.7	44.9	47.7	18	6.3	6	14	270	0.00	30.234 
13:00	47.9	45.8	47.9	18	6.5	5	11	248	0.00	30.230 
13:05	48.0	46.6	48.0	19	7.7	4	11	248	0.00	30.230 
13:10	48.3	46.2	48.3	19	8.0	5	10	248	0.00	30.230 
13:15	48.2	46.1	48.2	19	7.9	5	12	248	0.00	30.232 
13:20	48.0	45.9	48.0	19	7.7	5	12	270	0.00	30.232 
13:25	47.6	45.4	47.6	19	7.4	5	11	248	0.00	30.232 
13:30	47.7	46.2	47.7	19	7.5	4	10	248	0.00	30.232 
13:35	48.0	46.6	48.0	20	8.9	4	9	270	0.00	30.232 
13:40	47.9	46.4	47.9	21	9.9	4	7	248	0.00	30.232 
13:45	48.0	48.0	48.0	21	10.0	3	10	248	0.00	30.223 
13:50	47.7	45.5	47.7	20	8.6	5	10	248	0.00	30.223 
13:55	48.0	46.6	48.0	21	10.0	4	12	270	0.00	30.223 
14:00	48.9	48.9	48.9	21	10.7	2	6	248	0.00	30.217 
14:05	49.4	48.2	49.4	22	12.2	4	11	270	0.00	30.217 
14:10	49.4	49.4	49.4	22	12.2	3	7	248	0.00	30.217 
14:15	49.6	49.6	49.6	20	10.2	3	7	270	0.00	30.217 
14:20	49.5	47.6	49.5	20	10.1	5	12	248	0.00	30.217 
14:25	49.5	49.5	49.5	21	11.2	3	7	248	0.00	30.217 
14:30	49.6	47.7	49.6	20	10.2	5	15	248	0.00	30.218 
14:35	49.5	47.6	49.5	20	10.1	5	12	248	0.00	30.218 
14:40	49.4	48.2	49.4	19	8.9	4	11	248	0.00	30.218 
14:45	49.4	47.5	49.4	20	10.0	5	12	248	0.00	30.216 
14:50	49.4	47.5	49.4	20	10.0	5	12	248	0.00	30.216 
14:55	49.6	48.4	49.6	19	9.1	4	11	248	0.00	30.216 
15:00	49.5	47.6	49.5	19	9.0	5	11	270	0.00	30.217 
15:05	49.2	49.2	49.2	20	9.9	3	7	248	0.00	30.217 
15:10	48.8	48.8	48.8	20	9.5	3	10	248	0.00	30.217 
15:15	48.5	46.5	48.5	20	9.3	5	12	248	0.00	30.218 
15:20	48.2	46.8	48.2	20	9.0	4	9	270	0.00	30.218 
15:25	48.0	48.0	48.0	20	8.9	3	9	248	0.00	30.218 
15:30	47.7	46.2	47.7	20	8.6	4	9	248	0.00	30.218 
15:35	47.7	46.2	47.7	20	8.6	4	12	248	0.00	30.218 
15:40	47.7	46.2	47.7	21	9.7	4	9	248	0.00	30.218 
15:45	47.7	47.7	47.7	21	9.7	3	7	248	0.00	30.220 
15:50	47.6	47.6	47.6	21	9.6	3	8	248	0.00	30.220 
15:55	47.4	47.4	47.4	22	10.5	2	5	248	0.00	30.220 
16:00	47.3	47.3	47.3	23	11.4	1	4	248	0.00	30.221 
16:05	47.0	47.0	47.0	24	12.1	2	6	248	0.00	30.221 
16:10	46.7	46.7	46.7	24	11.9	2	7	248	0.00	30.221 
16:15	46.5	46.5	46.5	25	12.6	3	7	248	0.00	30.223 
16:20	46.5	46.5	46.5	25	12.6	2	6	248	0.00	30.223 
16:25	46.4	46.4	46.4	25	12.5	2	5	248	0.00	30.223 
16:30	46.4	46.4	46.4	26	13.4	1	4	270	0.00	30.223 
16:35	46.2	46.2	46.2	26	13.2	2	5	270	0.00	30.223 
16:40	46.0	46.0	46.0	27	13.9	1	4	270	0.00	30.223 
16:45	45.8	45.8	45.8	27	13.7	2	4	248	0.00	30.223 
16:50	45.8	45.8	45.8	27	13.7	2	4	248	0.00	30.223 
16:55	45.7	45.7	45.7	28	14.5	1	4	248	0.00	30.223 
17:00	45.5	45.5	45.5	27	13.5	2	5	248	0.00	30.216 
17:05	45.4	45.4	45.4	28	14.2	2	6	90	0.00	30.216 
17:10	45.2	45.2	45.2	28	14.1	1	5	248	0.00	30.216 
17:15	45.1	45.1	45.1	27	13.1	2	7	270	0.00	30.222 
17:20	44.9	44.9	44.9	27	13.0	1	4	292	0.00	30.222 
17:25	44.9	44.9	44.9	28	13.8	2	7	248	0.00	30.222 
17:30	44.8	44.8	44.8	27	12.9	2	5	270	0.00	30.221 
17:35	44.6	44.6	44.6	28	13.5	1	5	270	0.00	30.221 
17:40	44.5	44.5	44.5	28	13.4	1	5	270	0.00	30.221 
17:45	44.3	44.3	44.3	28	13.3	1	6	248	0.00	30.225 
17:50	44.3	44.3	44.3	28	13.3	1	9	248	0.00	30.225 
17:55	44.2	44.2	44.2	28	13.2	1	7	270	0.00	30.225 
18:00	44.1	44.1	44.1	29	13.9	1	5	338	0.00	30.224 
18:05	43.9	43.9	43.9	29	13.7	1	5	248	0.00	30.224 
18:10	43.9	43.9	43.9	30	14.5	1	4	270	0.00	30.224 
18:15	43.8	43.8	43.8	29	13.6	2	6	248	0.00	30.223 
18:20	43.6	43.6	43.6	30	14.2	1	5	270	0.00	30.223 
18:25	43.6	43.6	43.6	31	15.0	1	5	248	0.00	30.223 
18:30	43.8	43.8	43.8	31	15.2	2	6	248	0.00	30.228 
18:35	43.6	43.6	43.6	31	15.0	1	6	270	0.00	30.228 
18:40	43.5	43.5	43.5	32	15.6	1	5	248	0.00	30.228 
18:45	43.3	43.3	43.3	32	15.4	1	5	0	0.00	30.224 
18:50	43.2	43.2	43.2	32	15.4	1	5	270	0.00	30.224 
18:55	43.2	43.2	43.2	32	15.4	1	5	270	0.00	30.224 
19:00	43.2	43.2	43.2	33	16.1	1	4	248	0.00	30.225 
19:05	43.1	43.1	43.1	33	16.0	2	6	270	0.00	30.225 
19:10	43.1	43.1	43.1	34	16.7	1	4	248	0.00	30.225 
19:15	43.1	43.1	43.1	34	16.7	1	7	248	0.00	30.230 
19:20	42.9	42.9	42.9	33	15.8	1	5	248	0.00	30.230 
19:25	42.9	42.9	42.9	34	16.5	2	7	248	0.00	30.230 
19:30	42.9	42.9	42.9	34	16.5	2	7	248	0.00	30.230 
19:35	42.8	42.8	42.8	35	17.1	1	5	248	0.00	30.230 
19:40	42.8	42.8	42.8	35	17.1	1	5	270	0.00	30.230 
19:45	42.6	42.6	42.6	35	16.9	1	4	0	0.00	30.229 
19:50	42.6	42.6	42.6	34	16.2	1	3	248	0.00	30.229 
19:55	42.8	42.8	42.8	35	17.1	2	7	248	0.00	30.229 
20:00	42.8	42.8	42.8	34	16.4	2	7	225	0.00	30.233 
20:05	42.9	42.9	42.9	34	16.5	1	6	248	0.00	30.233 
20:10	42.9	42.9	42.9	35	17.2	2	5	248	0.00	30.233 
20:15	42.9	42.9	42.9	35	17.2	1	3	248	0.00	30.230 
20:20	42.9	42.9	42.9	35	17.2	2	5	292	0.00	30.230 
20:25	42.9	42.9	42.9	35	17.2	2	5	270	0.00	30.230 
20:30	42.8	42.8	42.8	35	17.1	1	6	248	0.00	30.230 
20:35	42.9	42.9	42.9	35	17.2	2	5	248	0.00	30.230 
20:40	42.8	42.8	42.8	35	17.1	2	6	248	0.00	30.230 
20:45	42.8	42.8	42.8	35	17.1	1	4	248	0.00	30.238 
20:50	42.6	42.6	42.6	35	16.9	2	4	248	0.00	30.238 
20:55	42.6	42.6	42.6	35	16.9	2	6	248	0.00	30.238 
21:00	42.6	42.6	42.6	35	16.9	1	4	248	0.00	30.238 
21:05	42.8	42.8	42.8	34	16.4	2	7	248	0.00	30.238 
21:10	42.9	42.9	42.9	35	17.2	2	6	248	0.00	30.238 
21:15	43.1	43.1	43.1	35	17.3	2	6	248	0.00	30.235 
21:20	43.1	43.1	43.1	35	17.3	2	6	248	0.00	30.235 
21:25	43.1	43.1	43.1	35	17.3	1	5	248	0.00	30.235 
21:30	43.1	43.1	43.1	35	17.3	2	5	248	0.00	30.237 
21:35	42.9	42.9	42.9	35	17.2	3	6	248	0.00	30.237 
21:40	42.9	42.9	42.9	35	17.2	2	5	248	0.00	30.237 
21:45	42.9	42.9	42.9	35	17.2	2	5	248	0.00	30.238 
21:50	42.9	42.9	42.9	36	17.8	2	4	248	0.00	30.238 
21:55	42.9	42.9	42.9	36	17.8	2	5	248	0.00	30.238 
22:00	43.1	43.1	43.1	36	18.0	2	5	248	0.00	30.236 
22:05	43.1	43.1	43.1	35	17.3	2	6	225	0.00	30.236 
22:10	43.2	43.2	43.2	35	17.4	2	5	248	0.00	30.236 
22:15	43.3	43.3	43.3	35	17.5	2	9	248	0.00	30.232 
22:20	43.3	43.3	43.3	35	17.5	2	6	248	0.00	30.232 
22:25	43.3	43.3	43.3	35	17.5	3	6	248	0.00	30.232 
22:30	43.5	43.5	43.5	35	17.7	3	10	248	0.00	30.231 
22:35	43.5	43.5	43.5	35	17.7	2	5	248	0.00	30.231 
22:40	43.5	43.5	43.5	34	17.0	2	5	248	0.00	30.231 
22:45	43.6	43.6	43.6	35	17.8	2	5	248	0.00	30.231 
22:50	43.6	43.6	43.6	35	17.8	2	6	248	0.00	30.231 
22:55	43.6	43.6	43.6	35	17.8	2	5	248	0.00	30.231 
23:00	43.6	43.6	43.6	35	17.8	2	5	248	0.00	30.229 
23:05	43.6	43.6	43.6	35	17.8	2	6	270	0.00	30.229 
23:10	43.8	43.8	43.8	34	17.3	2	5	248	0.00	30.229 
23:15	43.8	43.8	43.8	34	17.3	2	7	248	0.00	30.225 
23:20	43.8	43.8	43.8	35	18.0	3	7	248	0.00	30.225 
23:25	43.6	43.6	43.6	35	17.8	2	6	248	0.00	30.225 
23:30	43.6	43.6	43.6	35	17.8	2	7	248	0.00	30.228 
23:35	43.6	43.6	43.6	35	17.8	2	6	248	0.00	30.228 
23:40	43.6	43.6	43.6	35	17.8	3	7	248	0.00	30.228 
23:45	43.6	43.6	43.6	35	17.8	2	7	248	0.00	30.231 
23:50	43.6	43.6	43.6	35	17.8	2	9	248	0.00	30.231 
23:55	43.6	43.6	43.6	34	17.1	2	6	248	0.00	30.231 

CoCoRaHS
IN-AL-39
A2 Web Hosting
Creative Commons License
GoDaddy
Look for:

loaded 2017-10-19 20:09:34 • last modified 2010-11-18 10:43:29
Privacy PolicyDisclaimer
• wx.awcolley.com is powered by PmWiki v.2002016 •
• all content (unless otherwise noted) © 2017 A W Colley